createdAt,value
2022-11-06T00:02:47.955Z,21.30
2022-11-06T00:08:12.590Z,21.80
2022-11-06T00:13:37.109Z,21.70
2022-11-06T00:19:05.399Z,24.70
2022-11-06T00:24:31.407Z,20.80
2022-11-06T00:29:58.453Z,21.80
2022-11-06T00:35:23.423Z,20.60
2022-11-06T00:40:45.891Z,21.40
2022-11-06T00:46:15.036Z,21.80
2022-11-06T00:51:43.692Z,24.30
2022-11-06T00:57:10.105Z,21.00
2022-11-06T01:02:57.626Z,21.80
2022-11-06T01:08:27.143Z,22.80
2022-11-06T01:13:55.337Z,25.00
2022-11-06T01:19:36.274Z,25.20
2022-11-06T01:25:22.324Z,25.30
2022-11-06T01:30:44.618Z,24.30
2022-11-06T01:36:10.401Z,22.30
2022-11-06T01:41:41.896Z,25.20
2022-11-06T01:47:18.417Z,24.50
2022-11-06T01:52:41.908Z,22.70
2022-11-06T01:58:08.329Z,23.60
2022-11-06T02:03:43.647Z,22.00
2022-11-06T02:09:15.120Z,24.20
2022-11-06T02:14:51.538Z,23.00
2022-11-06T02:20:26.585Z,23.70
2022-11-06T02:26:06.366Z,21.50
2022-11-06T02:31:35.773Z,26.60
2022-11-06T02:37:12.993Z,22.30
2022-11-06T02:42:42.821Z,20.70
2022-11-06T02:48:09.746Z,23.40
2022-11-06T02:53:56.689Z,24.80
2022-11-06T02:59:35.325Z,21.20
2022-11-06T03:05:14.229Z,21.20
2022-11-06T03:17:32.691Z,23.90
2022-11-06T03:30:40.280Z,22.90
2022-11-06T03:49:11.522Z,24.70
2022-11-06T03:55:08.897Z,23.70
2022-11-06T04:06:47.751Z,24.50
2022-11-06T04:12:32.901Z,24.80
2022-11-06T04:18:11.201Z,22.80
2022-11-06T04:24:00.787Z,21.40
2022-11-06T04:30:00.695Z,23.30
2022-11-06T04:35:59.742Z,24.00
2022-11-06T04:42:11.002Z,24.00
2022-11-06T04:47:44.785Z,22.40
2022-11-06T04:53:09.533Z,26.70
2022-11-06T04:58:32.345Z,26.50
2022-11-06T05:03:57.056Z,22.40
2022-11-06T05:09:23.225Z,25.90
2022-11-06T05:14:49.011Z,30.80
2022-11-06T05:20:11.495Z,21.60
2022-11-06T05:25:38.040Z,32.10
2022-11-06T05:31:00.396Z,38.00
2022-11-06T05:36:23.000Z,23.50
2022-11-06T05:41:46.134Z,22.60
2022-11-06T05:47:10.958Z,23.90
2022-11-06T05:52:35.502Z,23.70
2022-11-06T05:57:59.971Z,23.20
2022-11-06T06:03:23.364Z,25.90
2022-11-06T06:08:51.455Z,29.50
2022-11-06T06:14:21.726Z,26.00
2022-11-06T06:19:44.556Z,23.50
2022-11-06T06:25:22.416Z,27.90
2022-11-06T06:30:45.703Z,27.60
2022-11-06T06:36:12.383Z,35.80
2022-11-06T06:41:42.188Z,27.20
2022-11-06T06:47:26.900Z,30.80
2022-11-06T06:52:55.911Z,38.10
2022-11-06T06:58:21.344Z,24.80
2022-11-06T07:09:08.255Z,32.20
2022-11-06T07:14:36.873Z,32.50
2022-11-06T07:19:59.959Z,27.40
2022-11-06T07:25:22.154Z,31.50
2022-11-06T07:30:44.505Z,27.70
2022-11-06T07:36:14.936Z,28.00
2022-11-06T07:41:40.122Z,32.90
2022-11-06T07:47:09.496Z,34.20
2022-11-06T07:52:35.611Z,40.10
2022-11-06T07:58:00.778Z,39.70
2022-11-06T08:03:27.468Z,39.40
2022-11-06T08:08:57.692Z,34.60
2022-11-06T08:14:23.438Z,32.10
2022-11-06T08:19:45.856Z,35.50
2022-11-06T08:25:10.843Z,34.50
2022-11-06T08:30:39.579Z,39.50
2022-11-06T08:36:07.638Z,39.50
2022-11-06T08:41:30.030Z,54.60
2022-11-06T08:46:57.182Z,60.80
2022-11-06T08:52:26.739Z,59.80
2022-11-06T08:57:51.354Z,60.70
2022-11-06T09:03:18.260Z,63.30
2022-11-06T09:08:40.936Z,52.90
2022-11-06T09:14:07.160Z,52.40
2022-11-06T09:19:29.752Z,54.10
2022-11-06T09:25:04.930Z,50.30
2022-11-06T09:30:30.573Z,53.30
2022-11-06T09:36:55.805Z,47.20
2022-11-06T09:44:08.201Z,48.20
2022-11-06T09:50:51.536Z,47.90
2022-11-06T09:57:38.265Z,45.50
2022-11-06T10:04:33.635Z,40.80
2022-11-06T10:10:40.728Z,38.20
2022-11-06T10:16:51.923Z,32.40
2022-11-06T10:22:39.804Z,33.60
2022-11-06T10:28:14.491Z,27.80
2022-11-06T10:33:53.967Z,29.20
2022-11-06T10:39:29.618Z,28.50
2022-11-06T10:45:11.740Z,27.90
2022-11-06T11:21:45.005Z,24.10
2022-11-06T11:39:39.145Z,22.80
2022-11-06T11:52:00.577Z,17.90
2022-11-06T11:58:46.211Z,23.40
2022-11-06T12:04:52.540Z,16.30
2022-11-06T12:10:35.726Z,18.30
2022-11-06T12:16:12.185Z,16.80
2022-11-06T12:21:42.661Z,17.80
2022-11-06T12:27:21.869Z,17.60
2022-11-06T12:33:16.817Z,18.80
2022-11-06T12:38:50.168Z,16.40
2022-11-06T12:44:16.265Z,16.70
2022-11-06T12:49:51.015Z,18.30
2022-11-06T12:55:29.766Z,16.90
2022-11-06T13:01:24.661Z,15.40
2022-11-06T13:07:21.270Z,14.50
2022-11-06T13:13:15.128Z,18.90
2022-11-06T13:19:05.882Z,19.70
2022-11-06T13:24:41.262Z,21.60
2022-11-06T13:30:24.575Z,17.60
2022-11-06T13:35:49.930Z,16.60
2022-11-06T13:41:36.888Z,16.30
2022-11-06T13:47:13.320Z,13.40
2022-11-06T13:52:48.139Z,10.00
2022-11-06T13:58:20.055Z,8.30
2022-11-06T14:03:58.379Z,10.50
2022-11-06T14:09:31.083Z,11.00
2022-11-06T14:15:15.289Z,12.40
2022-11-06T14:20:41.024Z,15.40
2022-11-06T14:26:57.143Z,15.00
2022-11-06T14:32:19.143Z,20.30
2022-11-06T14:37:44.218Z,19.50
2022-11-06T14:43:23.092Z,18.30
2022-11-06T14:48:50.925Z,16.40
2022-11-06T14:54:24.955Z,18.30
2022-11-06T14:59:52.037Z,15.90
2022-11-06T15:06:02.366Z,19.40
2022-11-06T15:11:30.466Z,22.10
2022-11-06T15:17:13.148Z,22.60
2022-11-06T15:22:47.856Z,25.10
2022-11-06T15:34:44.887Z,26.30
2022-11-06T15:40:35.609Z,28.20
2022-11-06T15:46:23.194Z,23.30
2022-11-06T15:52:56.183Z,23.30
2022-11-06T15:59:07.302Z,24.20
2022-11-06T16:05:00.766Z,22.50
2022-11-06T16:10:58.473Z,25.50
2022-11-06T16:23:36.099Z,19.10
2022-11-06T16:35:42.467Z,22.50
2022-11-06T16:47:50.590Z,26.80
2022-11-06T17:06:19.818Z,30.50
2022-11-06T17:12:42.014Z,31.30
2022-11-06T17:18:04.292Z,28.70
2022-11-06T17:23:30.824Z,37.60
2022-11-06T17:28:52.685Z,45.20
2022-11-06T17:35:16.780Z,29.80
2022-11-06T17:46:29.293Z,31.60
2022-11-06T17:51:58.584Z,33.50
2022-11-06T17:57:24.197Z,28.90
2022-11-06T18:03:02.455Z,33.30
2022-11-06T18:08:24.929Z,35.40
2022-11-06T18:13:49.688Z,41.50
2022-11-06T18:19:15.397Z,49.90
2022-11-06T18:24:38.623Z,55.60
2022-11-06T18:30:01.498Z,41.80
2022-11-06T18:35:24.254Z,48.30
2022-11-06T18:40:51.447Z,52.40
2022-11-06T18:46:18.639Z,59.40
2022-11-06T18:52:57.369Z,51.70
2022-11-06T18:58:40.731Z,50.90
2022-11-06T19:04:04.755Z,43.90
2022-11-06T19:09:39.023Z,41.90
2022-11-06T19:15:11.699Z,38.70
2022-11-06T19:20:35.326Z,36.40
2022-11-06T19:26:10.672Z,32.90
2022-11-06T19:31:40.084Z,32.80
2022-11-06T19:37:05.702Z,33.90
2022-11-06T19:42:50.922Z,36.20
2022-11-06T19:48:22.231Z,31.00
2022-11-06T20:12:49.562Z,38.70
2022-11-06T20:51:42.953Z,30.50
2022-11-06T20:57:16.581Z,33.20
2022-11-06T21:03:03.219Z,30.40
2022-11-06T21:08:53.459Z,27.20
2022-11-06T21:15:00.912Z,27.40
2022-11-06T21:20:34.798Z,31.80
2022-11-06T21:26:25.067Z,29.20
2022-11-06T21:31:57.262Z,32.20
2022-11-06T21:37:48.697Z,28.20
2022-11-06T21:43:15.652Z,27.00
2022-11-06T21:48:58.165Z,26.80
2022-11-06T21:54:46.114Z,25.90
2022-11-06T22:00:31.472Z,27.70
2022-11-06T22:06:20.951Z,26.40
2022-11-06T22:12:28.352Z,26.60
2022-11-06T22:18:25.494Z,27.00
2022-11-06T22:24:19.119Z,29.70
2022-11-06T22:30:13.457Z,26.30
2022-11-06T22:36:16.779Z,28.50
2022-11-06T22:42:29.737Z,24.50
2022-11-06T22:48:05.673Z,25.50
2022-11-06T22:54:10.924Z,25.70
2022-11-06T22:59:41.853Z,26.40
2022-11-06T23:05:25.031Z,30.50
2022-11-06T23:10:51.988Z,24.60
2022-11-06T23:17:12.744Z,24.60
2022-11-06T23:22:41.425Z,26.60
2022-11-06T23:28:35.796Z,25.10
2022-11-06T23:34:01.103Z,23.90
2022-11-06T23:39:33.945Z,24.80
2022-11-06T23:45:23.831Z,25.20
2022-11-06T23:51:34.482Z,29.00
2022-11-06T23:57:59.690Z,29.60
